sensor_id;sensor_type;location;lat;lon;timestamp;P1;durP1;ratioP1;P2;durP2;ratioP2
9489;SDS011;4783;42.734;23.288;2022-09-12T07:13:33;9.20;;;6.28;;
9489;SDS011;4783;42.734;23.288;2022-09-12T07:24:24;6.90;;;6.03;;
9489;SDS011;4783;42.734;23.288;2022-09-12T07:43:10;7.30;;;6.68;;
9489;SDS011;4783;42.734;23.288;2022-09-12T07:54:42;9.32;;;6.50;;
9489;SDS011;4783;42.734;23.288;2022-09-12T08:03:24;8.48;;;6.75;;
9489;SDS011;4783;42.734;23.288;2022-09-12T08:14:43;6.72;;;6.20;;
9489;SDS011;4783;42.734;23.288;2022-09-12T08:25:04;5.88;;;5.32;;
9489;SDS011;4783;42.734;23.288;2022-09-12T08:31:14;6.47;;;5.53;;
9489;SDS011;4783;42.734;23.288;2022-09-12T08:33:39;13.15;;;5.40;;
9489;SDS011;4783;42.734;23.288;2022-09-12T08:36:18;6.68;;;5.22;;
9489;SDS011;4783;42.734;23.288;2022-09-12T08:38:45;6.10;;;5.50;;
9489;SDS011;4783;42.734;23.288;2022-09-12T08:46:36;6.85;;;5.10;;
9489;SDS011;4783;42.734;23.288;2022-09-12T08:49:03;5.25;;;4.85;;
9489;SDS011;4783;42.734;23.288;2022-09-12T08:51:32;9.20;;;5.55;;
9489;SDS011;4783;42.734;23.288;2022-09-12T08:53:58;7.22;;;5.65;;
9489;SDS011;4783;42.734;23.288;2022-09-12T08:56:25;5.10;;;4.70;;
9489;SDS011;4783;42.734;23.288;2022-09-12T08:58:51;9.10;;;4.65;;
9489;SDS011;4783;42.734;23.288;2022-09-12T09:11:13;11.32;;;5.28;;
9489;SDS011;4783;42.734;23.288;2022-09-12T09:16:47;7.20;;;5.88;;
9489;SDS011;4783;42.734;23.288;2022-09-12T09:19:17;6.07;;;5.57;;
9489;SDS011;4783;42.734;23.288;2022-09-12T09:21:47;6.20;;;5.60;;
9489;SDS011;4783;42.734;23.288;2022-09-12T09:24:16;6.07;;;5.53;;
9489;SDS011;4783;42.734;23.288;2022-09-12T09:27:03;6.32;;;5.70;;
9489;SDS011;4783;42.734;23.288;2022-09-12T09:29:34;6.32;;;5.55;;
9489;SDS011;4783;42.734;23.288;2022-09-12T09:32:02;6.03;;;5.50;;
9489;SDS011;4783;42.734;23.288;2022-09-12T09:34:29;7.07;;;6.32;;
9489;SDS011;4783;42.734;23.288;2022-09-12T09:37:04;7.45;;;6.22;;
9489;SDS011;4783;42.734;23.288;2022-09-12T09:44:59;10.73;;;5.47;;
9489;SDS011;4783;42.734;23.288;2022-09-12T09:47:25;8.70;;;5.40;;
9489;SDS011;4783;42.734;23.288;2022-09-12T09:49:50;5.75;;;5.22;;
9489;SDS011;4783;42.734;23.288;2022-09-12T09:52:16;5.50;;;5.10;;
9489;SDS011;4783;42.734;23.288;2022-09-12T09:54:46;7.50;;;4.95;;
9489;SDS011;4783;42.734;23.288;2022-09-12T09:59:57;4.88;;;4.47;;
9489;SDS011;4783;42.734;23.288;2022-09-12T10:02:22;7.45;;;4.88;;
9489;SDS011;4783;42.734;23.288;2022-09-12T10:04:52;4.70;;;4.30;;
9489;SDS011;4783;42.734;23.288;2022-09-12T10:07:18;5.82;;;4.50;;
9489;SDS011;4783;42.734;23.288;2022-09-12T10:09:46;9.50;;;4.55;;
9489;SDS011;4783;42.734;23.288;2022-09-12T10:12:27;5.68;;;5.03;;
9489;SDS011;4783;42.734;23.288;2022-09-12T10:14:59;6.13;;;5.25;;
9489;SDS011;4783;42.734;23.288;2022-09-12T10:17:29;8.23;;;5.00;;
9489;SDS011;4783;42.734;23.288;2022-09-12T10:19:55;5.63;;;5.03;;
9489;SDS011;4783;42.734;23.288;2022-09-12T10:22:25;7.30;;;5.80;;
9489;SDS011;4783;42.734;23.288;2022-09-12T10:24:53;5.90;;;5.30;;
9489;SDS011;4783;42.734;23.288;2022-09-12T10:27:20;6.60;;;5.88;;
9489;SDS011;4783;42.734;23.288;2022-09-12T10:29:51;7.70;;;5.95;;
9489;SDS011;4783;42.734;23.288;2022-09-12T10:32:21;6.22;;;5.72;;
9489;SDS011;4783;42.734;23.288;2022-09-12T10:34:50;6.00;;;5.40;;
9489;SDS011;4783;42.734;23.288;2022-09-12T10:37:38;5.63;;;5.10;;
9489;SDS011;4783;42.734;23.288;2022-09-12T10:40:04;4.90;;;4.40;;
9489;SDS011;4783;42.734;23.288;2022-09-12T10:47:51;5.75;;;5.35;;
9489;SDS011;4783;42.734;23.288;2022-09-12T10:50:20;5.90;;;5.40;;
9489;SDS011;4783;42.734;23.288;2022-09-12T10:52:45;6.28;;;5.68;;
9489;SDS011;4783;42.734;23.288;2022-09-12T10:55:12;9.30;;;5.25;;
9489;SDS011;4783;42.734;23.288;2022-09-12T11:00:16;5.28;;;4.88;;
9489;SDS011;4783;42.734;23.288;2022-09-12T11:02:51;6.28;;;5.47;;
9489;SDS011;4783;42.734;23.288;2022-09-12T11:05:26;7.97;;;5.40;;
9489;SDS011;4783;42.734;23.288;2022-09-12T11:10:33;9.40;;;4.88;;
9489;SDS011;4783;42.734;23.288;2022-09-12T11:26:16;9.15;;;5.93;;
9489;SDS011;4783;42.734;23.288;2022-09-12T11:29:07;6.05;;;3.88;;
9489;SDS011;4783;42.734;23.288;2022-09-12T11:34:43;4.00;;;3.70;;
9489;SDS011;4783;42.734;23.288;2022-09-12T11:37:14;7.68;;;4.57;;
9489;SDS011;4783;42.734;23.288;2022-09-12T11:39:44;6.13;;;3.90;;
9489;SDS011;4783;42.734;23.288;2022-09-12T11:42:25;9.48;;;3.83;;
9489;SDS011;4783;42.734;23.288;2022-09-12T11:45:01;6.95;;;4.18;;
9489;SDS011;4783;42.734;23.288;2022-09-12T11:47:28;4.43;;;4.13;;
9489;SDS011;4783;42.734;23.288;2022-09-12T11:49:55;7.97;;;5.13;;
9489;SDS011;4783;42.734;23.288;2022-09-12T11:52:22;10.27;;;5.20;;
9489;SDS011;4783;42.734;23.288;2022-09-12T11:54:52;7.40;;;4.30;;
9489;SDS011;4783;42.734;23.288;2022-09-12T11:57:25;4.03;;;3.72;;
9489;SDS011;4783;42.734;23.288;2022-09-12T12:02:24;3.90;;;3.00;;
9489;SDS011;4783;42.734;23.288;2022-09-12T12:05:14;6.45;;;3.10;;
9489;SDS011;4783;42.734;23.288;2022-09-12T12:07:41;5.60;;;3.40;;
9489;SDS011;4783;42.734;23.288;2022-09-12T12:10:20;6.28;;;3.10;;
9489;SDS011;4783;42.734;23.288;2022-09-12T12:12:45;4.38;;;2.80;;
9489;SDS011;4783;42.734;23.288;2022-09-12T12:15:15;2.90;;;2.70;;
9489;SDS011;4783;42.734;23.288;2022-09-12T12:17:40;3.63;;;2.55;;
9489;SDS011;4783;42.734;23.288;2022-09-12T12:20:05;3.85;;;2.60;;
9489;SDS011;4783;42.734;23.288;2022-09-12T12:22:38;2.90;;;2.70;;
9489;SDS011;4783;42.734;23.288;2022-09-12T12:32:57;8.35;;;3.58;;
9489;SDS011;4783;42.734;23.288;2022-09-12T12:35:44;4.38;;;3.40;;
9489;SDS011;4783;42.734;23.288;2022-09-12T12:43:38;4.47;;;3.80;;
9489;SDS011;4783;42.734;23.288;2022-09-12T12:46:04;4.05;;;3.75;;
9489;SDS011;4783;42.734;23.288;2022-09-12T12:48:30;5.43;;;3.90;;
9489;SDS011;4783;42.734;23.288;2022-09-12T12:53:41;4.20;;;3.80;;
9489;SDS011;4783;42.734;23.288;2022-09-12T12:56:19;6.90;;;3.63;;
9489;SDS011;4783;42.734;23.288;2022-09-12T12:58:50;7.38;;;3.92;;
9489;SDS011;4783;42.734;23.288;2022-09-12T13:01:21;4.28;;;3.88;;
9489;SDS011;4783;42.734;23.288;2022-09-12T13:07:02;6.90;;;3.67;;
9489;SDS011;4783;42.734;23.288;2022-09-12T13:09:07;3.90;;;3.60;;
9489;SDS011;4783;42.734;23.288;2022-09-12T13:11:36;4.35;;;3.90;;
9489;SDS011;4783;42.734;23.288;2022-09-12T13:16:53;4.00;;;3.70;;
9489;SDS011;4783;42.734;23.288;2022-09-12T13:19:21;4.68;;;4.13;;
9489;SDS011;4783;42.734;23.288;2022-09-12T13:21:55;7.97;;;4.03;;
9489;SDS011;4783;42.734;23.288;2022-09-12T13:24:21;4.50;;;4.10;;
9489;SDS011;4783;42.734;23.288;2022-09-12T13:26:46;4.47;;;4.07;;
9489;SDS011;4783;42.734;23.288;2022-09-12T13:29:14;4.43;;;4.03;;
9489;SDS011;4783;42.734;23.288;2022-09-12T13:31:40;4.78;;;4.38;;
9489;SDS011;4783;42.734;23.288;2022-09-12T13:34:06;4.55;;;4.15;;
9489;SDS011;4783;42.734;23.288;2022-09-12T13:39:14;4.10;;;3.78;;
9489;SDS011;4783;42.734;23.288;2022-09-12T13:44:26;5.85;;;4.20;;
9489;SDS011;4783;42.734;23.288;2022-09-12T13:46:52;4.55;;;4.15;;
9489;SDS011;4783;42.734;23.288;2022-09-12T13:51:43;5.65;;;5.05;;
9489;SDS011;4783;42.734;23.288;2022-09-12T13:54:11;6.10;;;4.90;;
9489;SDS011;4783;42.734;23.288;2022-09-12T13:56:48;4.85;;;4.55;;
9489;SDS011;4783;42.734;23.288;2022-09-12T13:59:14;7.10;;;4.35;;
9489;SDS011;4783;42.734;23.288;2022-09-12T14:01:40;4.95;;;4.30;;
9489;SDS011;4783;42.734;23.288;2022-09-12T14:04:13;5.32;;;3.90;;
9489;SDS011;4783;42.734;23.288;2022-09-12T14:06:58;4.30;;;3.53;;
9489;SDS011;4783;42.734;23.288;2022-09-12T14:09:25;4.05;;;3.70;;
9489;SDS011;4783;42.734;23.288;2022-09-12T14:11:52;4.00;;;3.70;;
9489;SDS011;4783;42.734;23.288;2022-09-12T14:16:46;4.28;;;3.50;;
9489;SDS011;4783;42.734;23.288;2022-09-12T14:19:11;4.60;;;4.03;;
9489;SDS011;4783;42.734;23.288;2022-09-12T14:21:37;5.22;;;4.07;;
9489;SDS011;4783;42.734;23.288;2022-09-12T14:24:03;4.88;;;4.38;;
9489;SDS011;4783;42.734;23.288;2022-09-12T14:26:32;4.68;;;4.28;;
9489;SDS011;4783;42.734;23.288;2022-09-12T14:28:58;3.97;;;3.50;;
9489;SDS011;4783;42.734;23.288;2022-09-12T14:31:24;4.18;;;3.88;;
9489;SDS011;4783;42.734;23.288;2022-09-12T14:33:53;5.95;;;3.83;;
